| time (UTC) | temp F | wind direction | speed knots | gust knots | rain 1hr in | rain 24hr in | rain mn in | humidity % | barometer mb |
| 20260508003522 | 51 | 338 | 0.0 | 0.0 | 0.00 | 0.00 | 0.00 | 83 | 990.3 |
| 20260508000428 | 52 | 338 | 0.0 | 0.0 | 0.00 | 0.00 | 0.00 | 83 | 990.3 |
| 20260507233522 | 52 | 338 | 0.0 | 0.0 | 0.00 | 0.00 | 0.00 | 82 | 990.5 |
| 20260507230428 | 53 | 338 | 0.0 | 0.0 | 0.00 | 0.00 | 0.00 | 81 | 990.5 |
| 20260507224524 | 54 | 338 | 0.0 | 0.0 | 0.00 | 0.00 | 0.00 | 80 | 990.6 |
| 20260507223522 | 54 | 338 | 0.0 | 0.0 | 0.00 | 0.00 | 0.00 | 80 | 990.6 |
| 20260507214524 | 55 | 338 | 0.0 | 0.0 | 0.00 | 0.00 | 0.00 | 78 | 990.6 |
| 20260507213522 | 56 | 338 | 0.0 | 0.0 | 0.00 | 0.00 | 0.00 | 78 | 990.5 |
| 20260507204524 | 57 | 338 | 0.0 | 0.0 | 0.00 | 0.00 | 0.00 | 75 | 990.3 |
| 20260507203521 | 57 | 338 | 0.0 | 0.0 | 0.00 | 0.00 | 0.00 | 74 | 990.1 |
| 20260507194524 | 60 | 338 | 0.0 | 0.0 | 0.00 | 0.00 | 0.00 | 69 | 989.5 |
| 20260507193524 | 60 | 338 | 0.0 | 0.0 | 0.00 | 0.00 | 0.00 | 68 | 989.3 |
| 20260507184523 | 64 | 338 | 0.0 | 0.0 | 0.00 | 0.00 | 0.00 | 62 | 989.3 |
| 20260507183520 | 64 | 338 | 0.0 | 0.0 | 0.00 | 0.00 | 0.00 | 60 | 989.1 |
| 20260507174524 | 65 | 177 | 0.0 | 0.0 | 0.00 | 0.00 | 0.00 | 58 | 989.0 |
| 20260507173520 | 66 | 158 | 0.0 | 0.0 | 0.00 | 0.00 | 0.00 | 58 | 988.9 |
| 20260507164524 | 65 | 112 | 0.0 | 0.0 | 0.00 | 0.00 | 0.00 | 57 | 989.2 |
| 20260507163521 | 65 | 112 | 0.0 | 0.0 | 0.00 | 0.00 | 0.00 | 56 | 989.4 |
| 20260507154523 | 68 | 271 | 0.0 | 0.0 | 0.00 | 0.00 | 0.00 | 47 | 989.0 |
| 20260507153520 | 70 | 124 | 0.0 | 0.0 | 0.00 | 0.00 | 0.00 | 48 | 988.5 |
| 20260507144522 | 70 | 313 | 0.0 | 0.0 | 0.00 | 0.00 | 0.00 | 52 | 988.1 |
| 20260507143521 | 70 | 331 | 0.9 | 5.2 | 0.00 | 0.00 | 0.00 | 53 | 988.0 |
| 20260507134524 | 70 | 354 | 0.0 | 0.0 | 0.00 | 0.00 | 0.00 | 55 | 988.5 |
| 20260507133519 | 71 | 161 | 0.0 | 0.9 | 0.00 | 0.00 | 0.00 | 53 | 988.5 |
| 20260507124523 | 71 | 158 | 0.0 | 0.0 | 0.00 | 0.00 | 0.00 | 54 | 989.2 |
| 20260507123521 | 70 | 164 | 0.0 | 0.9 | 0.00 | 0.00 | 0.00 | 55 | 989.3 |
| 20260507114523 | 67 | 158 | 0.0 | 0.0 | 0.00 | 0.00 | 0.00 | 58 | 990.2 |
| 20260507113520 | 67 | 338 | 0.0 | 0.0 | 0.00 | 0.00 | 0.00 | 58 | 990.1 |
| 20260507104522 | 65 | 158 | 0.0 | 0.0 | 0.00 | 0.00 | 0.00 | 58 | 990.6 |
| 20260507103520 | 64 | 158 | 0.0 | 0.0 | 0.00 | 0.00 | 0.00 | 56 | 990.8 |
| 20260507094522 | 86 | 22 | 0.0 | 0.0 | 0.00 | 0.00 | 0.00 | 38 | 991.5 |
| 20260507093520 | 85 | 21 | 0.0 | 0.0 | 0.00 | 0.00 | 0.00 | 40 | 991.6 |
| 20260507084522 | 71 | 112 | 0.0 | 0.0 | 0.00 | 0.00 | 0.00 | 59 | 991.9 |
| 20260507083519 | 70 | 112 | 0.0 | 0.0 | 0.00 | 0.00 | 0.00 | 59 | 991.9 |
| 20260507074523 | 56 | 135 | 0.0 | 0.0 | 0.00 | 0.00 | 0.00 | 80 | 992.5 |
| 20260507073520 | 55 | 135 | 0.0 | 0.0 | 0.00 | 0.00 | 0.00 | 81 | 992.5 |
| 20260507070301 | 51 | 90 | 0.0 | 0.0 | 0.00 | 0.00 | 0.00 | 83 | 992.9 |
| 20260507063520 | 50 | 90 | 0.0 | 0.0 | 0.00 | 0.00 | 0.00 | 84 | 992.9 |
| 20260507060301 | 49 | 90 | 0.0 | 0.0 | 0.00 | 0.00 | 0.00 | 85 | 992.9 |
| 20260507053519 | 48 | 90 | 0.0 | 0.0 | 0.00 | 0.00 | 0.00 | 85 | 992.9 |
| 20260507050300 | 48 | 90 | 0.0 | 0.0 | 0.00 | 0.00 | 0.00 | 85 | 993.0 |
| 20260507043519 | 49 | 90 | 0.0 | 0.0 | 0.00 | 0.00 | 0.00 | 85 | 993.1 |
| 20260507040302 | 49 | 90 | 0.0 | 0.0 | 0.00 | 0.00 | 0.00 | 85 | 993.1 |
| 20260507033519 | 49 | 90 | 0.0 | 0.0 | 0.00 | 0.00 | 0.00 | 85 | 993.2 |
| 20260507030300 | 50 | 90 | 0.0 | 0.0 | 0.00 | 0.00 | 0.00 | 86 | 993.2 |
| 20260507023519 | 50 | 90 | 0.0 | 0.0 | 0.00 | 0.00 | 0.00 | 85 | 993.2 |
| 20260507020300 | 50 | 90 | 0.0 | 0.0 | 0.00 | 0.00 | 0.00 | 85 | 993.4 |
| 20260507013519 | 51 | 0 | 0.0 | 0.0 | 0.00 | 0.00 | 0.00 | 85 | 993.5 |
| 20260507010300 | 51 | 0 | 0.0 | 0.0 | 0.00 | 0.00 | 0.00 | 85 | 993.6 |